createdAt,value
2022-11-25T00:00:17.123Z,3
2022-11-25T00:01:17.077Z,3
2022-11-25T00:02:17.214Z,3
2022-11-25T00:03:17.154Z,3
2022-11-25T00:04:17.071Z,3
2022-11-25T00:05:17.074Z,3
2022-11-25T00:06:17.074Z,3
2022-11-25T00:07:17.150Z,3
2022-11-25T00:09:17.084Z,3
2022-11-25T00:10:17.069Z,3
2022-11-25T00:11:17.073Z,3
2022-11-25T00:12:17.067Z,3
2022-11-25T00:13:17.082Z,3
2022-11-25T00:14:17.078Z,3
2022-11-25T00:15:17.080Z,3
2022-11-25T00:16:17.133Z,3
2022-11-25T00:17:17.067Z,3
2022-11-25T00:18:17.076Z,3
2022-11-25T00:20:17.085Z,3
2022-11-25T00:21:17.094Z,3
2022-11-25T00:22:17.075Z,3
2022-11-25T00:23:17.076Z,3
2022-11-25T00:25:17.078Z,3
2022-11-25T00:26:17.081Z,3
2022-11-25T00:27:17.069Z,3
2022-11-25T00:28:17.081Z,3
2022-11-25T00:29:17.079Z,3
2022-11-25T00:30:17.071Z,3
2022-11-25T00:31:17.153Z,3
2022-11-25T00:32:17.093Z,3
2022-11-25T00:33:17.115Z,4
2022-11-25T00:34:17.077Z,3
2022-11-25T00:35:17.074Z,3
2022-11-25T00:36:17.076Z,3
2022-11-25T00:37:17.076Z,3
2022-11-25T00:38:17.084Z,3
2022-11-25T00:39:17.080Z,3
2022-11-25T00:41:17.077Z,3
2022-11-25T00:42:17.078Z,3
2022-11-25T00:43:17.073Z,3
2022-11-25T00:44:17.080Z,3
2022-11-25T00:46:17.122Z,3
2022-11-25T00:47:17.113Z,3
2022-11-25T00:48:17.077Z,2
2022-11-25T00:49:17.080Z,3
2022-11-25T00:50:17.075Z,3
2022-11-25T00:51:17.083Z,3
2022-11-25T00:52:17.087Z,3
2022-11-25T00:53:17.080Z,3
2022-11-25T00:54:17.085Z,3
2022-11-25T00:55:17.083Z,3
2022-11-25T00:56:17.085Z,3
2022-11-25T00:57:17.116Z,3
2022-11-25T00:58:17.084Z,3
2022-11-25T00:59:17.079Z,3
2022-11-25T01:00:17.076Z,3
2022-11-25T01:02:17.203Z,2
2022-11-25T01:03:17.087Z,4
2022-11-25T01:04:17.108Z,3
2022-11-25T01:05:17.085Z,3
2022-11-25T01:07:17.137Z,3
2022-11-25T01:08:17.078Z,3
2022-11-25T01:09:17.108Z,3
2022-11-25T01:10:17.080Z,3
2022-11-25T01:11:17.078Z,3
2022-11-25T01:13:17.079Z,3
2022-11-25T01:14:17.083Z,3
2022-11-25T01:15:17.080Z,3
2022-11-25T01:16:17.159Z,3
2022-11-25T01:18:17.078Z,2
2022-11-25T01:19:17.310Z,4
2022-11-25T01:20:17.087Z,3
2022-11-25T01:21:17.081Z,3
2022-11-25T01:22:17.090Z,2
2022-11-25T01:23:17.095Z,3
2022-11-25T01:24:17.093Z,3
2022-11-25T01:25:17.082Z,3
2022-11-25T01:26:17.085Z,3
2022-11-25T01:27:17.079Z,3
2022-11-25T01:28:17.088Z,3
2022-11-25T01:29:17.090Z,3
2022-11-25T01:30:17.078Z,3
2022-11-25T01:31:17.113Z,4
2022-11-25T01:32:17.076Z,3
2022-11-25T01:34:17.086Z,3
2022-11-25T01:35:17.120Z,3
2022-11-25T01:36:17.083Z,3
2022-11-25T01:37:17.095Z,3
2022-11-25T01:39:17.093Z,3
2022-11-25T01:40:17.098Z,3
2022-11-25T01:41:17.094Z,3
2022-11-25T01:42:17.094Z,3
2022-11-25T01:43:17.088Z,3
2022-11-25T01:44:17.083Z,3
2022-11-25T01:45:17.105Z,4
2022-11-25T01:46:17.152Z,3
2022-11-25T01:47:17.098Z,3
2022-11-25T01:48:17.083Z,3
2022-11-25T01:49:17.086Z,3
2022-11-25T01:50:17.080Z,3
2022-11-25T01:51:17.093Z,3
2022-11-25T01:52:17.094Z,3
2022-11-25T01:53:17.084Z,3
2022-11-25T01:55:17.099Z,3
2022-11-25T01:56:17.090Z,3
2022-11-25T01:57:17.086Z,3
2022-11-25T01:58:17.092Z,3
2022-11-25T02:00:17.091Z,3
2022-11-25T02:01:17.153Z,2
2022-11-25T02:02:17.203Z,3
2022-11-25T02:05:17.095Z,3
2022-11-25T02:06:17.118Z,3
2022-11-25T02:07:17.121Z,3
2022-11-25T02:08:17.105Z,3
2022-11-25T02:09:17.096Z,3
2022-11-25T02:10:17.090Z,3
2022-11-25T02:11:17.091Z,3
2022-11-25T02:13:17.094Z,3
2022-11-25T02:14:17.085Z,3
2022-11-25T02:15:17.099Z,3
2022-11-25T02:16:17.140Z,3
2022-11-25T02:17:17.097Z,3
2022-11-25T02:18:17.093Z,3
2022-11-25T02:19:17.089Z,3
2022-11-25T02:20:17.087Z,3
2022-11-25T02:21:17.087Z,3
2022-11-25T02:22:17.135Z,3
2022-11-25T02:23:17.108Z,3
2022-11-25T02:24:17.092Z,3
2022-11-25T02:25:17.092Z,4
2022-11-25T02:27:17.094Z,3
2022-11-25T02:28:17.093Z,3
2022-11-25T02:29:17.088Z,3
2022-11-25T02:30:17.096Z,4
2022-11-25T02:32:17.093Z,3
2022-11-25T02:33:17.090Z,3
2022-11-25T02:34:17.091Z,3
2022-11-25T02:35:17.088Z,3
2022-11-25T02:36:17.085Z,3
2022-11-25T02:37:17.120Z,3
2022-11-25T02:38:17.096Z,3
2022-11-25T02:39:17.091Z,3
2022-11-25T02:40:17.093Z,3
2022-11-25T02:41:17.101Z,3
2022-11-25T02:42:17.096Z,2
2022-11-25T02:43:17.088Z,3
2022-11-25T02:44:17.096Z,3
2022-11-25T02:45:17.099Z,3
2022-11-25T02:46:21.796Z,2
2022-11-25T02:48:17.100Z,3
2022-11-25T02:49:17.092Z,3
2022-11-25T02:50:17.101Z,3
2022-11-25T02:51:17.109Z,3
2022-11-25T02:53:17.098Z,3
2022-11-25T02:54:17.108Z,3
2022-11-25T02:55:17.096Z,3
2022-11-25T02:56:17.103Z,3
2022-11-25T02:58:17.092Z,3
2022-11-25T02:59:17.101Z,3
2022-11-25T03:00:17.095Z,3
2022-11-25T03:01:17.191Z,3
2022-11-25T03:03:17.120Z,3
2022-11-25T03:04:17.099Z,3
2022-11-25T03:05:17.093Z,3
2022-11-25T03:06:17.104Z,3
2022-11-25T03:07:17.134Z,3
2022-11-25T03:08:17.134Z,3
2022-11-25T03:09:17.092Z,2
2022-11-25T03:10:17.105Z,3
2022-11-25T03:11:17.093Z,4
2022-11-25T03:12:17.102Z,3
2022-11-25T03:13:17.105Z,3
2022-11-25T03:14:17.104Z,3
2022-11-25T03:15:17.102Z,3
2022-11-25T03:16:17.152Z,3
2022-11-25T03:17:17.098Z,3
2022-11-25T03:18:17.098Z,2
2022-11-25T03:19:17.102Z,3
2022-11-25T03:20:17.105Z,3
2022-11-25T03:21:17.102Z,3
2022-11-25T03:22:17.099Z,3
2022-11-25T03:23:17.105Z,3
2022-11-25T03:24:17.110Z,2
2022-11-25T03:25:17.098Z,3
2022-11-25T03:26:17.126Z,3
2022-11-25T03:27:17.101Z,3
2022-11-25T03:28:17.103Z,3
2022-11-25T03:30:17.101Z,3
2022-11-25T03:31:17.129Z,3
2022-11-25T03:32:17.142Z,3
2022-11-25T03:33:17.100Z,3
2022-11-25T03:35:17.096Z,3
2022-11-25T03:36:17.109Z,3
2022-11-25T03:37:17.140Z,3
2022-11-25T03:38:17.097Z,2
2022-11-25T03:39:17.126Z,2
2022-11-25T03:40:17.115Z,3
2022-11-25T03:41:17.101Z,3
2022-11-25T03:42:17.104Z,3
2022-11-25T03:43:17.103Z,3
2022-11-25T03:44:17.109Z,2
2022-11-25T03:45:17.103Z,3
2022-11-25T03:46:17.168Z,3
2022-11-25T03:47:17.102Z,3
2022-11-25T03:48:17.096Z,2
2022-11-25T03:49:17.103Z,3
2022-11-25T03:50:17.104Z,3
2022-11-25T03:51:17.104Z,2
2022-11-25T03:52:17.103Z,3
2022-11-25T03:53:17.108Z,3
2022-11-25T03:55:17.101Z,3
2022-11-25T03:56:17.099Z,3
2022-11-25T03:58:17.112Z,3
2022-11-25T03:59:17.105Z,4
2022-11-25T04:00:17.108Z,3
2022-11-25T04:01:17.129Z,2
2022-11-25T04:02:17.145Z,3
2022-11-25T04:03:17.104Z,3
2022-11-25T04:04:17.109Z,3
2022-11-25T04:05:17.106Z,3
2022-11-25T04:06:17.106Z,3
2022-11-25T04:07:17.178Z,3
2022-11-25T04:08:17.115Z,2
2022-11-25T04:09:17.109Z,3
2022-11-25T04:10:17.150Z,3
2022-11-25T04:11:17.104Z,4
2022-11-25T04:13:17.110Z,4
2022-11-25T04:14:17.112Z,3
2022-11-25T04:15:17.113Z,3
2022-11-25T04:17:17.110Z,3
2022-11-25T04:18:17.119Z,3
2022-11-25T04:20:17.103Z,3
2022-11-25T04:21:17.108Z,3
2022-11-25T04:22:17.099Z,3
2022-11-25T04:23:17.112Z,4
2022-11-25T04:24:17.108Z,4
2022-11-25T04:25:17.116Z,3
2022-11-25T04:26:17.120Z,4
2022-11-25T04:27:18.498Z,3
2022-11-25T04:28:17.115Z,3
2022-11-25T04:29:17.125Z,4
2022-11-25T04:30:17.110Z,3
2022-11-25T04:31:17.186Z,3
2022-11-25T04:32:17.105Z,3
2022-11-25T04:33:17.121Z,3
2022-11-25T04:34:17.107Z,3
2022-11-25T04:35:17.109Z,3
2022-11-25T04:36:17.105Z,3
2022-11-25T04:37:17.109Z,3
2022-11-25T04:38:17.116Z,4
2022-11-25T04:39:17.109Z,3
2022-11-25T04:40:17.113Z,3
2022-11-25T04:41:17.152Z,4
2022-11-25T04:42:17.108Z,4
2022-11-25T04:43:17.121Z,3
2022-11-25T04:44:17.112Z,3
2022-11-25T04:45:24.746Z,3
2022-11-25T04:46:17.217Z,4
2022-11-25T04:47:17.108Z,3
2022-11-25T04:48:17.127Z,3
2022-11-25T04:49:17.111Z,3
2022-11-25T04:51:17.135Z,4
2022-11-25T04:52:17.118Z,3
2022-11-25T04:53:17.127Z,3
2022-11-25T04:54:17.660Z,3
2022-11-25T04:55:17.114Z,3
2022-11-25T04:56:17.125Z,3
2022-11-25T04:57:17.111Z,3
2022-11-25T04:58:17.118Z,3
2022-11-25T04:59:17.117Z,3
2022-11-25T05:00:17.112Z,4
2022-11-25T05:01:17.200Z,3
2022-11-25T05:02:17.167Z,3
2022-11-25T05:03:17.117Z,3
2022-11-25T05:05:17.114Z,3
2022-11-25T05:06:17.113Z,3
2022-11-25T05:07:17.156Z,3
2022-11-25T05:08:17.121Z,4
2022-11-25T05:10:17.116Z,3
2022-11-25T05:11:17.109Z,3
2022-11-25T05:12:17.145Z,3
2022-11-25T05:13:17.112Z,3
2022-11-25T05:15:17.117Z,3
2022-11-25T05:17:17.113Z,3
2022-11-25T05:18:17.113Z,3
2022-11-25T05:19:17.128Z,3
2022-11-25T05:20:17.116Z,3
2022-11-25T05:21:17.118Z,3
2022-11-25T05:22:17.129Z,3
2022-11-25T05:23:17.143Z,3
2022-11-25T05:25:17.112Z,4
2022-11-25T05:26:17.132Z,3
2022-11-25T05:27:17.111Z,3
2022-11-25T05:28:17.124Z,3
2022-11-25T05:30:17.130Z,3
2022-11-25T05:31:17.148Z,3
2022-11-25T05:32:17.122Z,3
2022-11-25T05:33:17.124Z,3
2022-11-25T05:34:17.126Z,4
2022-11-25T05:35:17.158Z,3
2022-11-25T05:36:17.118Z,3
2022-11-25T05:37:21.272Z,3
2022-11-25T05:38:17.121Z,3
2022-11-25T05:39:17.115Z,4
2022-11-25T05:40:17.122Z,3
2022-11-25T05:41:17.116Z,4
2022-11-25T05:42:17.126Z,3
2022-11-25T05:43:17.149Z,3
2022-11-25T05:45:17.118Z,4
2022-11-25T05:46:17.178Z,3
2022-11-25T05:47:17.117Z,4
2022-11-25T05:48:17.120Z,3
2022-11-25T05:49:17.128Z,4
2022-11-25T05:50:17.114Z,4
2022-11-25T05:51:17.116Z,3
2022-11-25T05:52:17.118Z,4
2022-11-25T05:53:17.135Z,3
2022-11-25T05:55:17.127Z,4
2022-11-25T05:56:17.127Z,3
2022-11-25T05:57:17.117Z,3
2022-11-25T05:58:17.114Z,4
2022-11-25T05:59:17.119Z,4
2022-11-25T06:00:17.874Z,3
2022-11-25T06:01:17.114Z,4
2022-11-25T06:02:17.162Z,4
2022-11-25T06:03:17.294Z,4
2022-11-25T06:04:17.126Z,4
2022-11-25T06:05:17.118Z,3
2022-11-25T06:06:17.119Z,3
2022-11-25T06:07:17.539Z,4
2022-11-25T06:08:17.124Z,4
2022-11-25T06:09:17.121Z,4
2022-11-25T06:10:17.125Z,3
2022-11-25T06:11:17.136Z,4
2022-11-25T06:12:17.123Z,3
2022-11-25T06:13:17.131Z,3
2022-11-25T06:14:17.162Z,4
2022-11-25T06:15:17.120Z,4
2022-11-25T06:16:17.201Z,3
2022-11-25T06:17:17.126Z,3
2022-11-25T06:18:17.121Z,3
2022-11-25T06:19:17.129Z,3
2022-11-25T06:20:17.121Z,3
2022-11-25T06:21:17.129Z,4
2022-11-25T06:22:17.129Z,4
2022-11-25T06:23:17.130Z,3
2022-11-25T06:24:17.124Z,3
2022-11-25T06:25:17.131Z,3
2022-11-25T06:26:17.136Z,3
2022-11-25T06:27:17.127Z,4
2022-11-25T06:29:17.131Z,3
2022-11-25T06:30:17.124Z,4
2022-11-25T06:31:17.212Z,4
2022-11-25T06:32:17.131Z,3
2022-11-25T06:34:17.128Z,3
2022-11-25T06:35:17.129Z,4
2022-11-25T06:36:17.163Z,4
2022-11-25T06:37:17.128Z,3
2022-11-25T06:38:17.128Z,4
2022-11-25T06:39:17.144Z,3
2022-11-25T06:40:17.131Z,4
2022-11-25T06:41:17.126Z,4
2022-11-25T06:42:17.125Z,3
2022-11-25T06:43:17.129Z,4
2022-11-25T06:44:17.125Z,3
2022-11-25T06:45:17.162Z,3
2022-11-25T06:46:21.313Z,3
2022-11-25T06:47:17.129Z,4
2022-11-25T06:48:17.142Z,4
2022-11-25T06:49:17.133Z,4
2022-11-25T06:50:17.131Z,3
2022-11-25T06:51:17.135Z,3
2022-11-25T06:52:17.135Z,3
2022-11-25T06:53:21.213Z,4
2022-11-25T06:54:17.133Z,3
2022-11-25T06:55:17.124Z,4
2022-11-25T06:56:17.126Z,4
2022-11-25T06:57:17.135Z,4
2022-11-25T06:58:35.035Z,3
2022-11-25T06:59:17.125Z,4
2022-11-25T07:01:17.214Z,4
2022-11-25T07:02:17.189Z,4
2022-11-25T07:03:17.164Z,3
2022-11-25T07:04:17.138Z,4
2022-11-25T07:06:17.125Z,4
2022-11-25T07:07:17.214Z,4
2022-11-25T07:08:17.134Z,4
2022-11-25T07:09:17.139Z,4
2022-11-25T07:10:17.142Z,3
2022-11-25T07:11:17.134Z,3
2022-11-25T07:12:17.137Z,3
2022-11-25T07:13:17.135Z,3
2022-11-25T07:14:17.154Z,4
2022-11-25T07:15:17.152Z,3
2022-11-25T07:16:17.239Z,4
2022-11-25T07:17:17.143Z,4
2022-11-25T07:18:17.126Z,4
2022-11-25T07:19:17.135Z,4
2022-11-25T07:20:17.137Z,5
2022-11-25T07:22:17.133Z,4
2022-11-25T07:23:17.139Z,4
2022-11-25T07:24:17.154Z,5
2022-11-25T07:25:17.132Z,4
2022-11-25T07:26:17.136Z,4
2022-11-25T07:27:17.140Z,4
2022-11-25T07:28:18.187Z,4
2022-11-25T07:29:50.999Z,4
2022-11-25T07:31:21.065Z,4
2022-11-25T07:31:28.100Z,3
2022-11-25T07:32:17.134Z,4
2022-11-25T07:33:17.240Z,4
2022-11-25T07:34:17.135Z,4
2022-11-25T07:35:17.136Z,4
2022-11-25T07:36:17.137Z,4
2022-11-25T07:37:17.134Z,4
2022-11-25T07:38:17.149Z,4
2022-11-25T07:39:17.134Z,4
2022-11-25T07:40:17.138Z,4
2022-11-25T07:41:17.136Z,3
2022-11-25T07:42:17.142Z,4
2022-11-25T07:43:17.137Z,4
2022-11-25T07:44:17.144Z,4
2022-11-25T07:45:17.138Z,4
2022-11-25T07:46:18.888Z,4
2022-11-25T07:47:17.179Z,4
2022-11-25T07:48:17.136Z,5
2022-11-25T07:49:17.141Z,5
2022-11-25T07:50:17.138Z,4
2022-11-25T07:51:17.165Z,4
2022-11-25T07:52:17.136Z,5
2022-11-25T07:53:17.140Z,7
2022-11-25T07:54:17.149Z,8
2022-11-25T07:55:17.143Z,7
2022-11-25T07:56:17.143Z,6
2022-11-25T07:57:17.134Z,5
2022-11-25T07:58:17.148Z,5
2022-11-25T07:59:17.154Z,4
2022-11-25T08:00:17.159Z,5
2022-11-25T08:01:17.209Z,5
2022-11-25T08:02:17.207Z,4
2022-11-25T08:03:17.234Z,4
2022-11-25T08:04:20.415Z,4
2022-11-25T08:05:17.144Z,5
2022-11-25T08:06:17.142Z,5
2022-11-25T08:07:17.163Z,5
2022-11-25T08:08:17.148Z,5
2022-11-25T08:09:17.148Z,5
2022-11-25T08:10:17.150Z,5
2022-11-25T08:12:17.144Z,5
2022-11-25T08:13:17.145Z,4
2022-11-25T08:14:17.148Z,5
2022-11-25T08:15:17.139Z,4
2022-11-25T08:16:17.286Z,4
2022-11-25T08:17:17.149Z,4
2022-11-25T08:18:17.170Z,4
2022-11-25T08:19:17.145Z,5
2022-11-25T08:20:17.155Z,4
2022-11-25T08:21:17.141Z,4
2022-11-25T08:22:17.152Z,4
2022-11-25T08:23:17.141Z,3
2022-11-25T08:24:17.150Z,4
2022-11-25T08:25:17.141Z,4
2022-11-25T08:27:17.149Z,4
2022-11-25T08:28:17.149Z,4
2022-11-25T08:29:17.149Z,4
2022-11-25T08:30:17.145Z,4
2022-11-25T08:32:17.142Z,4
2022-11-25T08:33:17.167Z,3
2022-11-25T08:34:17.153Z,4
2022-11-25T08:35:17.157Z,4
2022-11-25T08:36:17.152Z,4
2022-11-25T08:37:17.151Z,4
2022-11-25T08:38:17.163Z,4
2022-11-25T08:39:44.032Z,3
2022-11-25T08:40:17.141Z,4
2022-11-25T08:41:17.156Z,4
2022-11-25T08:42:17.141Z,4
2022-11-25T08:43:17.150Z,3
2022-11-25T08:44:17.911Z,3
2022-11-25T08:45:17.153Z,3
2022-11-25T08:46:17.203Z,4
2022-11-25T08:47:17.165Z,3
2022-11-25T08:48:17.146Z,4
2022-11-25T08:49:17.178Z,4
2022-11-25T08:50:17.144Z,4
2022-11-25T08:51:17.152Z,3
2022-11-25T08:52:17.429Z,4
2022-11-25T08:53:17.156Z,4
2022-11-25T08:54:17.151Z,4
2022-11-25T08:56:20.295Z,5
2022-11-25T08:57:17.151Z,5
2022-11-25T08:58:17.151Z,4
2022-11-25T08:59:17.149Z,4
2022-11-25T09:01:17.220Z,4
2022-11-25T09:02:17.273Z,4
2022-11-25T09:03:17.247Z,4
2022-11-25T09:04:17.153Z,4
2022-11-25T09:05:17.153Z,4
2022-11-25T09:06:17.145Z,3
2022-11-25T09:07:17.230Z,5
2022-11-25T09:08:17.181Z,3
2022-11-25T09:09:17.149Z,3
2022-11-25T09:11:17.213Z,4
2022-11-25T09:12:17.152Z,4
2022-11-25T09:13:17.150Z,4
2022-11-25T09:14:17.215Z,3
2022-11-25T09:16:17.197Z,4
2022-11-25T09:17:17.150Z,3
2022-11-25T09:18:17.161Z,3
2022-11-25T09:19:17.154Z,3
2022-11-25T09:20:17.184Z,3
2022-11-25T09:21:17.156Z,4
2022-11-25T09:22:17.169Z,4
2022-11-25T09:23:17.153Z,4
2022-11-25T09:24:17.154Z,3
2022-11-25T09:26:17.161Z,4
2022-11-25T09:27:17.151Z,3
2022-11-25T09:28:17.200Z,4
2022-11-25T09:29:17.166Z,4
2022-11-25T09:31:17.473Z,3
2022-11-25T09:33:17.152Z,4
2022-11-25T09:34:17.161Z,4
2022-11-25T09:35:17.152Z,4
2022-11-25T09:36:17.156Z,4
2022-11-25T09:37:17.149Z,3
2022-11-25T09:38:17.178Z,3
2022-11-25T09:39:17.152Z,3
2022-11-25T09:40:17.162Z,3
2022-11-25T09:41:17.152Z,4
2022-11-25T09:42:17.161Z,4
2022-11-25T09:43:17.163Z,3
2022-11-25T09:44:17.157Z,4
2022-11-25T09:45:17.164Z,4
2022-11-25T09:46:17.191Z,4
2022-11-25T09:47:17.157Z,4
2022-11-25T09:48:17.159Z,3
2022-11-25T09:50:17.162Z,4
2022-11-25T09:51:17.190Z,4
2022-11-25T09:52:17.166Z,4
2022-11-25T09:54:17.161Z,4
2022-11-25T09:55:17.160Z,4
2022-11-25T09:56:17.176Z,4
2022-11-25T09:57:17.161Z,4
2022-11-25T09:59:17.163Z,4
2022-11-25T10:00:17.160Z,4
2022-11-25T10:01:17.159Z,4
2022-11-25T10:02:17.223Z,4
2022-11-25T10:04:17.178Z,4
2022-11-25T10:05:17.482Z,4
2022-11-25T10:06:17.203Z,4
2022-11-25T10:07:17.165Z,4
2022-11-25T10:08:17.169Z,4
2022-11-25T10:09:17.154Z,4
2022-11-25T10:10:17.167Z,4
2022-11-25T10:11:17.155Z,4
2022-11-25T10:12:17.162Z,4
2022-11-25T10:13:17.161Z,4
2022-11-25T10:14:17.158Z,4
2022-11-25T10:15:17.160Z,3
2022-11-25T10:16:17.257Z,4
2022-11-25T10:18:17.161Z,5
2022-11-25T10:19:17.164Z,5
2022-11-25T10:20:17.153Z,5
2022-11-25T10:21:17.161Z,4
2022-11-25T10:22:17.261Z,5
2022-11-25T10:23:17.164Z,5
2022-11-25T10:24:17.161Z,5
2022-11-25T10:25:17.159Z,4
2022-11-25T10:26:17.161Z,5
2022-11-25T10:27:17.159Z,6
2022-11-25T10:28:17.177Z,6
2022-11-25T10:29:17.173Z,5
2022-11-25T10:30:17.209Z,5
2022-11-25T10:31:17.268Z,5
2022-11-25T10:32:17.171Z,4
2022-11-25T10:33:17.176Z,4
2022-11-25T10:34:17.175Z,4
2022-11-25T10:35:17.165Z,4
2022-11-25T10:36:17.163Z,5
2022-11-25T10:37:17.164Z,5
2022-11-25T10:38:19.173Z,5
2022-11-25T10:39:17.161Z,6
2022-11-25T10:40:17.169Z,6
2022-11-25T10:42:17.170Z,5
2022-11-25T10:43:17.159Z,5
2022-11-25T10:44:17.159Z,5
2022-11-25T10:45:17.163Z,6
2022-11-25T10:47:17.235Z,5
2022-11-25T10:48:17.169Z,4
2022-11-25T10:49:17.174Z,4
2022-11-25T10:50:17.253Z,5
2022-11-25T10:51:17.181Z,4
2022-11-25T10:52:17.174Z,4
2022-11-25T10:55:17.160Z,5
2022-11-25T10:57:17.175Z,5
2022-11-25T10:58:17.168Z,5
2022-11-25T10:59:17.165Z,6
2022-11-25T11:00:17.688Z,4
2022-11-25T11:01:17.223Z,4
2022-11-25T11:02:17.235Z,4
2022-11-25T11:03:17.235Z,5
2022-11-25T11:04:17.184Z,5
2022-11-25T11:05:17.164Z,4
2022-11-25T11:06:17.175Z,4
2022-11-25T11:07:17.236Z,5
2022-11-25T11:08:17.187Z,5
2022-11-25T11:10:17.210Z,5
2022-11-25T11:11:17.167Z,4
2022-11-25T11:12:17.170Z,5
2022-11-25T11:13:17.169Z,5
2022-11-25T11:14:17.175Z,4
2022-11-25T11:15:17.176Z,4
2022-11-25T11:16:17.204Z,5
2022-11-25T11:17:17.203Z,5
2022-11-25T11:20:17.187Z,4
2022-11-25T11:21:17.172Z,4
2022-11-25T11:22:17.169Z,4
2022-11-25T11:23:17.179Z,4
2022-11-25T11:25:17.173Z,4
2022-11-25T11:26:17.192Z,4
2022-11-25T11:27:17.177Z,4
2022-11-25T11:29:17.178Z,3
2022-11-25T11:30:17.172Z,4
2022-11-25T11:31:17.192Z,4
2022-11-25T11:32:17.167Z,4
2022-11-25T11:33:17.180Z,4
2022-11-25T11:34:17.184Z,3
2022-11-25T11:35:17.181Z,4
2022-11-25T11:36:17.166Z,4
2022-11-25T11:37:17.179Z,4
2022-11-25T11:38:17.181Z,4
2022-11-25T11:39:17.178Z,4
2022-11-25T11:40:17.177Z,4
2022-11-25T11:41:17.176Z,4
2022-11-25T11:42:17.181Z,3
2022-11-25T11:43:17.190Z,3
2022-11-25T11:44:17.172Z,4
2022-11-25T11:45:17.182Z,5
2022-11-25T11:46:17.217Z,4
2022-11-25T11:47:17.194Z,4
2022-11-25T11:48:17.178Z,4
2022-11-25T11:49:17.173Z,4
2022-11-25T11:50:17.186Z,4
2022-11-25T11:51:17.175Z,4
2022-11-25T11:52:17.184Z,3
2022-11-25T11:53:17.179Z,4
2022-11-25T11:54:17.184Z,4
2022-11-25T11:55:17.207Z,4
2022-11-25T11:57:17.185Z,4
2022-11-25T11:59:17.170Z,4
2022-11-25T12:00:17.298Z,3
2022-11-25T12:01:17.180Z,3
2022-11-25T12:02:17.216Z,3
2022-11-25T12:03:17.206Z,4
2022-11-25T12:04:17.181Z,4
2022-11-25T12:05:17.185Z,4
2022-11-25T12:06:17.191Z,3
2022-11-25T12:07:17.222Z,4
2022-11-25T12:08:17.185Z,4
2022-11-25T12:10:17.174Z,4
2022-11-25T12:11:17.183Z,4
2022-11-25T12:12:17.183Z,4
2022-11-25T12:13:17.183Z,4
2022-11-25T12:15:17.174Z,3
2022-11-25T12:16:17.193Z,4
2022-11-25T12:17:17.177Z,3
2022-11-25T12:19:17.187Z,4
2022-11-25T12:20:17.194Z,4
2022-11-25T12:21:17.180Z,4
2022-11-25T12:22:17.176Z,4
2022-11-25T12:23:17.187Z,4
2022-11-25T12:25:17.199Z,4
2022-11-25T12:26:17.207Z,4
2022-11-25T12:27:17.185Z,4
2022-11-25T12:28:17.181Z,4
2022-11-25T12:29:17.184Z,3
2022-11-25T12:30:17.180Z,3
2022-11-25T12:31:17.201Z,3
2022-11-25T12:32:17.180Z,3
2022-11-25T12:33:17.177Z,3
2022-11-25T12:34:17.182Z,3
2022-11-25T12:35:17.180Z,3
2022-11-25T12:36:17.185Z,4
2022-11-25T12:37:17.198Z,3
2022-11-25T12:38:17.209Z,3
2022-11-25T12:39:17.180Z,3
2022-11-25T12:40:17.187Z,3
2022-11-25T12:41:17.181Z,3
2022-11-25T12:42:17.185Z,3
2022-11-25T12:43:17.183Z,3
2022-11-25T12:44:17.186Z,3
2022-11-25T12:45:17.185Z,3
2022-11-25T12:46:17.266Z,3
2022-11-25T12:47:17.188Z,3
2022-11-25T12:49:17.191Z,3
2022-11-25T12:50:17.202Z,3
2022-11-25T12:51:17.189Z,3
2022-11-25T12:52:17.187Z,3
2022-11-25T12:53:17.192Z,2
2022-11-25T12:54:17.191Z,4
2022-11-25T12:55:17.189Z,3
2022-11-25T12:56:17.194Z,3
2022-11-25T12:57:17.214Z,3
2022-11-25T12:58:17.292Z,3
2022-11-25T12:59:17.197Z,3
2022-11-25T13:00:40.413Z,3
2022-11-25T13:01:17.271Z,3
2022-11-25T13:02:17.219Z,3
2022-11-25T13:03:17.194Z,3
2022-11-25T13:04:17.189Z,3
2022-11-25T13:05:39.435Z,2
2022-11-25T13:06:17.194Z,3
2022-11-25T13:07:17.206Z,3
2022-11-25T13:09:17.191Z,2
2022-11-25T13:10:17.191Z,3
2022-11-25T13:11:17.399Z,2
2022-11-25T13:12:17.477Z,2
2022-11-25T13:13:18.648Z,3
2022-11-25T13:14:17.461Z,3
2022-11-25T13:15:17.686Z,3
2022-11-25T13:16:17.689Z,2
2022-11-25T13:17:17.577Z,2
2022-11-25T13:18:17.203Z,3
2022-11-25T13:20:17.190Z,3
2022-11-25T13:21:17.199Z,3
2022-11-25T13:22:17.208Z,2
2022-11-25T13:24:17.188Z,3
2022-11-25T13:25:17.204Z,3
2022-11-25T13:26:17.201Z,3
2022-11-25T13:27:17.193Z,3
2022-11-25T13:28:17.220Z,3
2022-11-25T13:29:17.207Z,3
2022-11-25T13:30:17.194Z,3
2022-11-25T13:31:17.264Z,3
2022-11-25T13:32:17.195Z,3
2022-11-25T13:34:17.201Z,3
2022-11-25T13:35:17.202Z,3
2022-11-25T13:36:17.192Z,3
2022-11-25T13:37:17.189Z,3
2022-11-25T13:38:18.255Z,3
2022-11-25T13:39:17.208Z,3
2022-11-25T13:40:17.208Z,3
2022-11-25T13:41:17.202Z,2
2022-11-25T13:42:17.195Z,3
2022-11-25T13:43:19.001Z,3
2022-11-25T13:44:17.198Z,2
2022-11-25T13:45:17.199Z,2
2022-11-25T13:46:17.289Z,2
2022-11-25T13:47:17.206Z,3
2022-11-25T13:48:17.195Z,3
2022-11-25T13:49:17.203Z,3
2022-11-25T13:50:21.736Z,3
2022-11-25T13:51:17.199Z,3
2022-11-25T13:52:17.194Z,3
2022-11-25T13:53:17.202Z,3
2022-11-25T13:54:17.201Z,3
2022-11-25T13:55:17.197Z,3
2022-11-25T13:56:17.208Z,3
2022-11-25T13:57:17.194Z,2
2022-11-25T13:58:17.227Z,3
2022-11-25T13:59:17.229Z,3
2022-11-25T14:00:17.201Z,3
2022-11-25T14:01:17.202Z,3
2022-11-25T14:02:17.392Z,3
2022-11-25T14:03:17.219Z,3
2022-11-25T14:04:17.199Z,4
2022-11-25T14:05:17.198Z,3
2022-11-25T14:06:17.208Z,3
2022-11-25T14:07:20.055Z,4
2022-11-25T14:08:17.207Z,4
2022-11-25T14:09:17.206Z,5
2022-11-25T14:10:17.206Z,5
2022-11-25T14:11:17.199Z,5
2022-11-25T14:12:17.195Z,5
2022-11-25T14:13:17.215Z,4
2022-11-25T14:14:17.200Z,4
2022-11-25T14:16:17.271Z,4
2022-11-25T14:17:17.226Z,4
2022-11-25T14:18:17.200Z,3
2022-11-25T14:20:17.202Z,4
2022-11-25T14:21:17.204Z,3
2022-11-25T14:22:17.207Z,3
2022-11-25T14:23:22.183Z,3
2022-11-25T14:24:17.203Z,3
2022-11-25T14:25:17.203Z,3
2022-11-25T14:26:42.096Z,3
2022-11-25T14:27:17.203Z,3
2022-11-25T14:28:17.199Z,3
2022-11-25T14:29:17.208Z,3
2022-11-25T14:30:17.228Z,3
2022-11-25T14:31:17.328Z,3
2022-11-25T14:32:17.205Z,2
2022-11-25T14:33:17.209Z,3
2022-11-25T14:34:17.210Z,3
2022-11-25T14:35:17.209Z,3
2022-11-25T14:36:17.203Z,3
2022-11-25T14:37:17.206Z,3
2022-11-25T14:38:17.208Z,2
2022-11-25T14:39:17.211Z,3
2022-11-25T14:40:17.206Z,3
2022-11-25T14:41:17.215Z,3
2022-11-25T14:42:17.214Z,4
2022-11-25T14:43:17.207Z,3
2022-11-25T14:44:17.223Z,3
2022-11-25T14:45:17.218Z,4
2022-11-25T14:46:17.280Z,3
2022-11-25T14:47:17.221Z,3
2022-11-25T14:48:17.208Z,3
2022-11-25T14:49:44.896Z,3
2022-11-25T14:50:41.402Z,3
2022-11-25T14:51:17.214Z,3
2022-11-25T14:52:17.215Z,3
2022-11-25T14:53:17.208Z,3
2022-11-25T14:54:17.387Z,3
2022-11-25T14:55:17.213Z,3
2022-11-25T14:56:17.230Z,3
2022-11-25T14:57:17.298Z,4
2022-11-25T14:58:17.216Z,4
2022-11-25T14:59:17.219Z,3
2022-11-25T15:00:17.221Z,3
2022-11-25T15:01:17.251Z,4
2022-11-25T15:02:17.249Z,4
2022-11-25T15:03:17.226Z,3
2022-11-25T15:05:17.215Z,3
2022-11-25T15:06:17.214Z,3
2022-11-25T15:07:17.279Z,3
2022-11-25T15:08:17.217Z,3
2022-11-25T15:09:17.217Z,4
2022-11-25T15:10:17.219Z,3
2022-11-25T15:11:17.233Z,4
2022-11-25T15:12:17.214Z,4
2022-11-25T15:14:17.230Z,4
2022-11-25T15:15:17.221Z,4
2022-11-25T15:16:17.325Z,4
2022-11-25T15:17:17.220Z,4
2022-11-25T15:19:17.220Z,3
2022-11-25T15:20:17.216Z,3
2022-11-25T15:21:17.229Z,3
2022-11-25T15:22:24.532Z,3
2022-11-25T15:23:17.234Z,3
2022-11-25T15:24:17.218Z,3
2022-11-25T15:25:17.227Z,3
2022-11-25T15:26:17.230Z,4
2022-11-25T15:27:17.224Z,28
2022-11-25T15:28:17.215Z,36
2022-11-25T15:29:17.226Z,72
2022-11-25T15:30:17.218Z,31
2022-11-25T15:31:17.249Z,11
2022-11-25T15:32:17.253Z,10
2022-11-25T15:33:17.218Z,6
2022-11-25T15:34:17.222Z,6
2022-11-25T15:35:17.215Z,5
2022-11-25T15:36:17.217Z,8
2022-11-25T15:37:17.225Z,5
2022-11-25T15:38:17.239Z,7
2022-11-25T15:39:17.223Z,9
2022-11-25T15:40:17.221Z,10
2022-11-25T15:41:17.227Z,9
2022-11-25T15:42:17.222Z,7
2022-11-25T15:43:17.226Z,6
2022-11-25T15:44:17.223Z,6
2022-11-25T15:45:17.223Z,6
2022-11-25T15:46:17.259Z,6
2022-11-25T15:47:17.223Z,6
2022-11-25T15:48:17.222Z,10
2022-11-25T15:49:17.228Z,6
2022-11-25T15:50:17.228Z,8
2022-11-25T15:51:17.235Z,9
2022-11-25T15:52:17.221Z,4
2022-11-25T15:53:22.151Z,4
2022-11-25T15:54:17.233Z,5
2022-11-25T15:55:17.254Z,28
2022-11-25T15:56:17.226Z,46
2022-11-25T15:59:17.225Z,16
2022-11-25T16:00:17.261Z,6
2022-11-25T16:01:17.382Z,7
2022-11-25T16:03:17.246Z,8
2022-11-25T16:04:17.227Z,8
2022-11-25T16:05:17.226Z,5
2022-11-25T16:06:17.228Z,5
2022-11-25T16:07:17.270Z,5
2022-11-25T16:08:17.237Z,5
2022-11-25T16:09:17.259Z,5
2022-11-25T16:11:17.235Z,5
2022-11-25T16:12:17.240Z,5
2022-11-25T16:13:21.524Z,5
2022-11-25T16:14:17.227Z,4